Earle, Arkansas
Current Conditions -  °F | °C
As of 2:53 PM on Friday 19 Dec 2014 (Local Time) from KAWM Reporting Station
Overcast Overcast  
Wind Chill: 39°   Ceiling: 3900
Heat Index: 44°   Visibility: 10mi
Dew Point: 36°   Wind: 9mph
Humidity: 73%   Direction: 70°ENE
Pressure: 30.19"   Gusts: NA
Location:  35.28°N, 90.47°W
Report Text: KAWM 192053Z AUTO 07008KT 10SM OVC039 07/02 A3019 RMK AO2 SLP225 T00670022 56027
Loading
Personal Weather Stations






























Interactive Weather Map New forecast layout! Learn more

10-Day Weather Forecast

Advertisements
Track Severe Weather on mobile